createdAt,value
2023-04-25T00:03:11.247Z,5.10
2023-04-25T00:07:33.481Z,5.00
2023-04-25T00:11:58.153Z,4.95
2023-04-25T00:16:20.370Z,5.72
2023-04-25T00:20:47.786Z,5.32
2023-04-25T00:25:09.948Z,5.53
2023-04-25T00:29:31.919Z,5.32
2023-04-25T00:33:54.417Z,5.28
2023-04-25T00:38:16.517Z,4.88
2023-04-25T00:42:39.660Z,4.95
2023-04-25T00:47:04.686Z,5.10
2023-04-25T00:51:28.053Z,5.45
2023-04-25T00:55:52.021Z,5.95
2023-04-25T01:00:15.812Z,5.53
2023-04-25T01:04:40.191Z,5.35
2023-04-25T01:09:04.111Z,5.10
2023-04-25T01:13:26.029Z,5.50
2023-04-25T01:17:48.318Z,5.22
2023-04-25T01:22:11.749Z,6.00
2023-04-25T01:26:34.632Z,5.80
2023-04-25T01:30:58.123Z,5.45
2023-04-25T01:35:20.492Z,5.32
2023-04-25T01:39:42.600Z,6.10
2023-04-25T01:44:05.641Z,5.30
2023-04-25T01:48:28.009Z,6.07
2023-04-25T01:52:50.955Z,5.55
2023-04-25T01:57:13.936Z,6.05
2023-04-25T02:01:37.916Z,5.95
2023-04-25T02:06:12.077Z,5.95
2023-04-25T02:10:39.607Z,5.82
2023-04-25T02:15:24.562Z,5.80
2023-04-25T02:19:51.365Z,6.13
2023-04-25T02:24:13.741Z,5.78
2023-04-25T02:28:36.219Z,5.80
2023-04-25T02:33:00.952Z,6.10
2023-04-25T02:37:23.181Z,6.30
2023-04-25T02:41:45.422Z,5.80
2023-04-25T02:46:08.540Z,6.30
2023-04-25T02:50:30.378Z,6.15
2023-04-25T02:54:52.557Z,5.40
2023-04-25T02:59:14.611Z,6.15
2023-04-25T03:03:36.724Z,6.68
2023-04-25T03:07:58.572Z,6.40
2023-04-25T03:12:21.673Z,5.65
2023-04-25T03:16:44.129Z,5.70
2023-04-25T03:21:06.636Z,5.82
2023-04-25T03:25:28.608Z,5.47
2023-04-25T03:29:50.697Z,5.13
2023-04-25T03:34:13.316Z,6.55
2023-04-25T03:38:37.011Z,4.93
2023-04-25T03:43:00.878Z,4.72
2023-04-25T03:47:23.437Z,5.55
2023-04-25T03:51:47.207Z,4.70
2023-04-25T03:56:11.561Z,4.63
2023-04-25T04:00:36.587Z,4.63
2023-04-25T04:04:59.391Z,4.32
2023-04-25T04:09:22.558Z,5.25
2023-04-25T04:13:44.574Z,5.28
2023-04-25T04:18:07.497Z,5.55
2023-04-25T04:22:29.961Z,5.38
2023-04-25T04:26:56.218Z,4.93
2023-04-25T04:31:26.270Z,5.15
2023-04-25T04:35:49.615Z,5.70
2023-04-25T04:40:13.481Z,5.20
2023-04-25T04:44:40.779Z,5.43
2023-04-25T04:49:16.640Z,5.50
2023-04-25T04:54:03.552Z,4.85
2023-04-25T04:58:46.086Z,4.55
2023-04-25T05:03:34.858Z,5.35
2023-04-25T05:07:57.121Z,4.60
2023-04-25T05:12:46.104Z,4.32
2023-04-25T05:17:25.618Z,5.30
2023-04-25T05:22:10.904Z,4.32
2023-04-25T05:26:50.111Z,3.63
2023-04-25T05:31:31.447Z,3.65
2023-04-25T05:35:57.901Z,7.85
2023-04-25T05:40:21.613Z,3.50
2023-04-25T05:44:54.896Z,3.30
2023-04-25T05:49:45.417Z,3.60
2023-04-25T05:54:27.276Z,3.35
2023-04-25T05:58:51.029Z,3.55
2023-04-25T06:03:17.213Z,3.85
2023-04-25T06:07:42.074Z,3.85
2023-04-25T06:12:04.331Z,3.40
2023-04-25T06:16:27.341Z,3.33
2023-04-25T06:20:49.680Z,3.22
2023-04-25T06:25:13.854Z,3.35
2023-04-25T06:29:36.060Z,3.00
2023-04-25T06:33:58.198Z,3.38
2023-04-25T06:38:22.237Z,3.15
2023-04-25T06:42:46.824Z,3.20
2023-04-25T06:47:39.042Z,3.15
2023-04-25T06:52:01.478Z,3.40
2023-04-25T06:56:24.524Z,2.78
2023-04-25T07:00:56.240Z,3.20
2023-04-25T07:05:20.804Z,2.75
2023-04-25T07:09:43.178Z,3.47
2023-04-25T07:14:05.945Z,3.00
2023-04-25T07:18:29.548Z,2.78
2023-04-25T07:22:52.286Z,2.40
2023-04-25T07:27:15.660Z,2.47
2023-04-25T07:31:59.788Z,2.97
2023-04-25T07:36:22.763Z,3.13
2023-04-25T07:40:44.843Z,3.72
2023-04-25T07:45:08.904Z,5.07
2023-04-25T07:49:31.640Z,4.30
2023-04-25T07:53:53.880Z,5.90
2023-04-25T07:58:17.344Z,4.72
2023-04-25T08:02:42.042Z,4.00
2023-04-25T08:07:10.908Z,3.67
2023-04-25T08:11:44.617Z,3.35
2023-04-25T08:16:10.462Z,4.57
2023-04-25T08:20:32.991Z,3.38
2023-04-25T08:24:57.759Z,2.67
2023-04-25T08:29:20.407Z,3.22
2023-04-25T08:33:42.553Z,3.78
2023-04-25T08:38:16.214Z,3.88
2023-04-25T08:42:41.983Z,3.60
2023-04-25T08:47:06.268Z,3.88
2023-04-25T08:51:35.724Z,3.53
2023-04-25T08:56:02.938Z,2.92
2023-04-25T09:00:30.619Z,3.72
2023-04-25T09:04:55.922Z,3.13
2023-04-25T09:09:19.215Z,2.78
2023-04-25T09:13:41.178Z,2.20
2023-04-25T09:18:30.927Z,2.83
2023-04-25T09:23:06.851Z,2.90
2023-04-25T09:27:31.262Z,3.15
2023-04-25T09:32:25.494Z,2.88
2023-04-25T09:36:50.742Z,3.60
2023-04-25T09:41:43.564Z,4.05
2023-04-25T09:46:12.969Z,3.58
2023-04-25T09:50:40.813Z,3.97
2023-04-25T09:55:07.874Z,4.00
2023-04-25T09:59:32.935Z,4.93
2023-04-25T10:03:59.329Z,4.85
2023-04-25T10:08:40.556Z,4.10
2023-04-25T10:13:08.092Z,4.85
2023-04-25T10:17:30.321Z,3.95
2023-04-25T10:22:40.342Z,4.43
2023-04-25T10:27:02.994Z,3.83
2023-04-25T10:31:25.324Z,5.43
2023-04-25T10:35:47.659Z,6.20
2023-04-25T10:40:11.486Z,5.97
2023-04-25T10:44:33.596Z,5.70
2023-04-25T10:49:01.506Z,5.97
2023-04-25T10:53:28.690Z,5.00
2023-04-25T10:57:52.054Z,5.45
2023-04-25T11:02:14.959Z,3.53
2023-04-25T11:07:08.930Z,3.45
2023-04-25T11:11:31.516Z,3.97
2023-04-25T11:16:03.172Z,4.13
2023-04-25T11:20:34.312Z,5.00
2023-04-25T11:24:56.534Z,4.82
2023-04-25T11:29:18.543Z,5.43
2023-04-25T11:33:42.176Z,6.43
2023-04-25T11:38:05.539Z,5.07
2023-04-25T11:42:28.120Z,4.32
2023-04-25T11:47:15.724Z,5.32
2023-04-25T11:57:22.263Z,4.03
2023-04-25T12:01:51.093Z,4.10
2023-04-25T12:06:19.321Z,4.50
2023-04-25T12:10:42.685Z,3.58
2023-04-25T12:15:26.276Z,4.03
2023-04-25T12:19:48.462Z,3.45
2023-04-25T12:24:14.046Z,3.28
2023-04-25T12:28:36.037Z,3.65
2023-04-25T12:32:58.334Z,4.20
2023-04-25T12:37:20.747Z,3.63
2023-04-25T12:41:42.958Z,4.05
2023-04-25T12:46:04.866Z,3.92
2023-04-25T12:50:28.136Z,4.72
2023-04-25T12:54:50.665Z,4.75
2023-04-25T12:59:15.238Z,3.95
2023-04-25T13:03:37.518Z,4.60
2023-04-25T13:08:00.492Z,4.60
2023-04-25T13:12:22.281Z,4.93
2023-04-25T13:16:48.037Z,3.92
2023-04-25T13:21:12.709Z,3.45
2023-04-25T13:25:35.271Z,2.95
2023-04-25T13:29:57.328Z,2.97
2023-04-25T13:34:19.278Z,2.70
2023-04-25T13:38:45.309Z,2.60
2023-04-25T13:43:07.893Z,3.22
2023-04-25T13:47:31.316Z,3.00
2023-04-25T13:51:53.333Z,3.58
2023-04-25T13:56:15.834Z,3.35
2023-04-25T14:00:40.724Z,3.50
2023-04-25T14:05:04.694Z,3.17
2023-04-25T14:09:28.409Z,3.25
2023-04-25T14:13:50.706Z,3.28
2023-04-25T14:18:13.296Z,3.22
2023-04-25T14:22:35.838Z,3.17
2023-04-25T14:26:58.237Z,2.70
2023-04-25T14:31:20.294Z,4.10
2023-04-25T14:35:42.588Z,3.40
2023-04-25T14:40:06.306Z,2.75
2023-04-25T14:44:28.321Z,3.13
2023-04-25T14:48:50.956Z,3.75
2023-04-25T14:53:14.375Z,4.00
2023-04-25T14:57:36.675Z,4.00
2023-04-25T15:01:59.843Z,4.10
2023-04-25T15:06:22.311Z,4.38
2023-04-25T15:10:44.166Z,2.95
2023-04-25T15:15:14.273Z,4.03
2023-04-25T15:19:39.769Z,3.03
2023-04-25T15:24:02.422Z,2.92
2023-04-25T15:28:24.824Z,2.67
2023-04-25T15:32:48.194Z,3.90
2023-04-25T15:37:10.197Z,3.15
2023-04-25T15:41:32.198Z,3.28
2023-04-25T15:45:54.187Z,3.10
2023-04-25T15:50:16.537Z,3.25
2023-04-25T15:54:38.663Z,2.53
2023-04-25T15:59:00.838Z,2.72
2023-04-25T16:03:23.143Z,2.22
2023-04-25T16:07:47.105Z,2.83
2023-04-25T16:12:11.884Z,3.00
2023-04-25T16:16:34.227Z,2.50
2023-04-25T16:20:56.559Z,2.78
2023-04-25T16:25:18.931Z,2.55
2023-04-25T16:29:42.099Z,2.40
2023-04-25T16:34:07.202Z,2.38
2023-04-25T16:38:29.929Z,2.10
2023-04-25T16:42:52.343Z,2.28
2023-04-25T16:47:18.628Z,2.08
2023-04-25T16:51:41.793Z,3.03
2023-04-25T16:56:08.054Z,2.72
2023-04-25T17:00:30.075Z,2.78
2023-04-25T17:04:52.733Z,2.38
2023-04-25T17:09:15.444Z,2.30
2023-04-25T17:13:37.815Z,2.53
2023-04-25T17:18:12.173Z,3.25
2023-04-25T17:22:37.312Z,2.53
2023-04-25T17:26:59.680Z,2.65
2023-04-25T17:31:24.138Z,2.20
2023-04-25T17:35:46.382Z,2.42
2023-04-25T17:40:12.264Z,2.60
2023-04-25T17:44:35.500Z,2.30
2023-04-25T17:48:58.695Z,2.72
2023-04-25T17:53:20.815Z,2.40
2023-04-25T17:57:42.770Z,3.55
2023-04-25T18:02:05.197Z,2.55
2023-04-25T18:06:28.561Z,2.20
2023-04-25T18:10:51.364Z,2.67
2023-04-25T18:15:13.409Z,1.88
2023-04-25T18:19:36.273Z,2.95
2023-04-25T18:23:58.276Z,2.25
2023-04-25T18:28:22.209Z,2.38
2023-04-25T18:32:44.595Z,3.00
2023-04-25T18:37:07.101Z,3.35
2023-04-25T18:41:53.627Z,3.60
2023-04-25T18:46:22.608Z,3.05
2023-04-25T18:50:44.559Z,3.17
2023-04-25T18:55:07.483Z,3.75
2023-04-25T18:59:30.084Z,3.40
2023-04-25T19:03:57.193Z,3.00
2023-04-25T19:08:20.959Z,3.72
2023-04-25T19:12:43.089Z,3.47
2023-04-25T19:17:05.111Z,3.13
2023-04-25T19:21:27.359Z,3.70
2023-04-25T19:25:49.640Z,3.45
2023-04-25T19:30:12.470Z,3.35
2023-04-25T19:34:34.473Z,2.95
2023-04-25T19:39:02.778Z,2.70
2023-04-25T19:43:25.013Z,2.78
2023-04-25T19:47:48.453Z,2.90
2023-04-25T19:52:14.975Z,2.90
2023-04-25T19:56:37.183Z,2.60
2023-04-25T20:00:59.257Z,2.42
2023-04-25T20:05:21.183Z,3.40
2023-04-25T20:09:43.121Z,2.95
2023-04-25T20:14:06.002Z,2.90
2023-04-25T20:18:27.784Z,2.65
2023-04-25T20:22:52.995Z,3.38
2023-04-25T20:27:15.298Z,3.40
2023-04-25T20:31:38.080Z,2.97
2023-04-25T20:36:00.425Z,3.20
2023-04-25T20:40:22.370Z,2.85
2023-04-25T20:44:44.485Z,3.20
2023-04-25T20:49:06.603Z,2.75
2023-04-25T20:53:28.517Z,6.97
2023-04-25T20:57:51.278Z,1.85
2023-04-25T21:02:15.848Z,2.50
2023-04-25T21:06:37.920Z,2.63
2023-04-25T21:10:59.936Z,3.03
2023-04-25T21:15:22.188Z,2.85
2023-04-25T21:19:44.356Z,3.15
2023-04-25T21:24:06.778Z,2.63
2023-04-25T21:28:28.788Z,2.67
2023-04-25T21:32:51.695Z,3.05
2023-04-25T21:37:14.231Z,2.78
2023-04-25T21:41:37.717Z,2.50
2023-04-25T21:46:21.752Z,3.13
2023-04-25T21:50:42.252Z,2.85
2023-04-25T21:55:04.984Z,3.05
2023-04-25T21:59:26.808Z,3.47
2023-04-25T22:03:48.855Z,2.67
2023-04-25T22:08:10.898Z,2.30
2023-04-25T22:12:34.037Z,2.63
2023-04-25T22:16:56.519Z,3.10
2023-04-25T22:21:18.520Z,3.03
2023-04-25T22:25:41.648Z,3.25
2023-04-25T22:30:04.897Z,4.10
2023-04-25T22:34:26.789Z,3.00
2023-04-25T22:38:49.111Z,2.83
2023-04-25T22:43:10.973Z,2.60
2023-04-25T22:47:33.687Z,2.83
2023-04-25T22:51:57.080Z,3.60
2023-04-25T22:56:19.452Z,2.72
2023-04-25T23:00:41.570Z,2.80
2023-04-25T23:05:04.876Z,2.17
2023-04-25T23:09:27.797Z,2.47
2023-04-25T23:13:49.797Z,3.15
2023-04-25T23:18:11.682Z,2.58
2023-04-25T23:22:34.773Z,2.58
2023-04-25T23:26:57.019Z,2.78
2023-04-25T23:31:18.925Z,2.80
2023-04-25T23:35:41.403Z,3.15
2023-04-25T23:40:12.671Z,2.88
2023-04-25T23:44:34.858Z,2.72
2023-04-25T23:48:57.199Z,2.90
2023-04-25T23:53:19.196Z,3.75
2023-04-25T23:57:44.537Z,3.10
